Terminal Aerodrome Forecast
Issued by NWS

Home | Current Version | Previous Version | Text Only | Print | Product List | Glossary On
Versions: 1 2 3 4 5 6 7 8 9 10 11 12 13
614
FTPA31 PHFO 241021 AAA
TAFSTU
TAF AMD
NSTU 241021Z 2410/2506 14014KT 5SM -SHRA SCT020 BKN040 OVC100
     FM241700 11010KT P6SM FEW015 SCT040 BKN100=

USA.gov is the U.S. government's official web portal to all federal, state and local government web resources and services.